Time;durP1;ratioP1;P1;durP2;ratioP2;P2;SDS_P1;SDS_P2;PMS_P1;PMS_P2;Temp;Humidity;BMP_temperature;BMP_pressure;BME280_temperature;BME280_humidity;BME280_pressure;Samples;Min_cycle;Max_cycle;Signal;HPM_P1;HPM_P2
2021/09/27 00:01:22;;;;;;;14.60;7.78;;;17.30;99.90;;;;;;5073503;28;20028;-77
2021/09/27 00:03:48;;;;;;;15.25;8.73;;;17.30;99.90;;;;;;5072142;28;20044;-77
2021/09/27 00:06:14;;;;;;;15.50;8.85;;;17.30;99.90;;;;;;5072588;28;20097;-76
2021/09/27 00:08:40;;;;;;;14.27;8.77;;;17.30;99.90;;;;;;5072425;28;20373;-76
2021/09/27 00:11:12;;;;;;;15.82;9.05;;;17.40;99.90;;;;;;5072044;28;20074;-77
2021/09/27 00:13:42;;;;;;;15.45;8.70;;;17.40;99.90;;;;;;5073872;28;20032;-76
2021/09/27 00:16:10;;;;;;;13.95;8.45;;;17.40;99.90;;;;;;5072274;28;20416;-77
2021/09/27 00:18:36;;;;;;;13.00;8.25;;;17.40;99.90;;;;;;5072286;28;20047;-76
2021/09/27 00:21:09;;;;;;;13.85;8.50;;;17.40;99.90;;;;;;5073391;28;20450;-76
2021/09/27 00:23:36;;;;;;;10.63;7.30;;;17.50;99.90;;;;;;5071717;28;20033;-76
2021/09/27 00:26:03;;;;;;;14.30;8.07;;;17.50;99.90;;;;;;5071938;28;20025;-76
2021/09/27 00:28:29;;;;;;;12.73;7.95;;;17.50;99.90;;;;;;5073370;28;20066;-76
2021/09/27 00:30:55;;;;;;;16.15;8.18;;;17.50;99.90;;;;;;5071934;28;20427;-77
2021/09/27 00:33:23;;;;;;;12.82;8.43;;;17.50;99.90;;;;;;5072265;28;20481;-76
2021/09/27 00:35:49;;;;;;;11.82;7.82;;;17.50;99.90;;;;;;5072026;28;20028;-77
2021/09/27 00:38:15;;;;;;;12.10;8.23;;;17.50;99.90;;;;;;5072191;28;20024;-76
2021/09/27 00:40:54;;;;;;;11.23;7.95;;;17.50;99.90;;;;;;5073370;28;20047;-77
2021/09/27 00:43:23;;;;;;;13.55;7.65;;;17.50;99.90;;;;;;5073491;28;20097;-76
2021/09/27 00:45:57;;;;;;;12.20;7.95;;;17.50;99.90;;;;;;5071781;28;20024;-77
2021/09/27 00:48:24;;;;;;;12.13;7.43;;;17.50;99.90;;;;;;5073460;28;20466;-76
2021/09/27 00:50:56;;;;;;;12.27;7.50;;;17.40;99.90;;;;;;5071772;28;20021;-77
2021/09/27 00:53:31;;;;;;;13.27;7.85;;;17.40;99.90;;;;;;5071902;28;20055;-76
2021/09/27 00:55:59;;;;;;;10.90;7.13;;;17.40;99.90;;;;;;5071655;28;20098;-77
2021/09/27 00:58:26;;;;;;;10.43;6.43;;;17.40;99.90;;;;;;5072147;28;20382;-76
2021/09/27 01:00:52;;;;;;;12.73;7.28;;;17.30;99.90;;;;;;5073153;28;20025;-76
2021/09/27 01:03:18;;;;;;;13.77;7.78;;;17.30;99.90;;;;;;5071880;28;20040;-76
2021/09/27 01:06:09;;;;;;;11.38;7.60;;;17.20;99.90;;;;;;5073341;28;20359;-76
2021/09/27 01:09:04;;;;;;;11.13;6.68;;;17.20;99.90;;;;;;5104977;28;20086;-76
2021/09/27 01:12:02;;;;;;;13.77;7.55;;;17.20;99.90;;;;;;5088981;28;20036;-76
2021/09/27 01:14:54;;;;;;;12.18;7.75;;;17.20;99.90;;;;;;5071765;28;20119;-76
2021/09/27 01:17:37;;;;;;;10.35;7.13;;;17.20;99.90;;;;;;5074635;28;20032;-76
2021/09/27 01:20:20;;;;;;;12.35;7.45;;;17.30;99.90;;;;;;5071457;28;20029;-76
2021/09/27 01:23:10;;;;;;;14.50;7.95;;;17.30;99.90;;;;;;5072584;28;20104;-76
2021/09/27 01:26:00;;;;;;;12.30;7.57;;;17.30;99.90;;;;;;5088769;28;20021;-76
2021/09/27 01:28:47;;;;;;;14.02;7.57;;;17.30;99.90;;;;;;5072828;28;20108;-76
2021/09/27 01:31:39;;;;;;;12.80;7.97;;;17.20;99.90;;;;;;5088128;28;20035;-76
2021/09/27 01:34:22;;;;;;;14.25;8.68;;;17.20;99.90;;;;;;5072058;28;20033;-76
2021/09/27 01:37:10;;;;;;;13.75;7.70;;;17.20;99.90;;;;;;5075258;28;20025;-76
2021/09/27 01:39:42;;;;;;;12.95;8.07;;;17.20;99.90;;;;;;5092240;28;20033;-76
2021/09/27 01:42:24;;;;;;;14.57;8.45;;;17.10;99.90;;;;;;5075856;28;20020;-76
2021/09/27 01:44:53;;;;;;;12.60;7.95;;;17.10;99.90;;;;;;5076084;28;20596;-77
2021/09/27 01:47:29;;;;;;;15.85;8.60;;;17.10;99.90;;;;;;5092159;28;20119;-76
2021/09/27 01:50:41;;;;;;;13.93;8.82;;;17.10;99.90;;;;;;5074607;28;20109;-76
2021/09/27 01:53:20;;;;;;;15.35;8.48;;;17.10;99.90;;;;;;5069905;28;20070;-77
2021/09/27 01:56:27;;;;;;;14.88;9.13;;;17.10;99.90;;;;;;5075353;28;20049;-77
2021/09/27 01:59:15;;;;;;;15.32;8.80;;;17.10;99.90;;;;;;5067228;28;20037;-78
2021/09/27 02:01:56;;;;;;;14.85;9.07;;;17.10;99.90;;;;;;5074905;28;20035;-76
2021/09/27 02:04:28;;;;;;;14.03;9.20;;;17.00;99.90;;;;;;5075855;28;20044;-78
2021/09/27 02:06:57;;;;;;;16.10;9.48;;;17.10;99.90;;;;;;5074632;28;20033;-78
2021/09/27 02:09:33;;;;;;;17.02;10.15;;;17.00;99.90;;;;;;5076029;28;20423;-77
2021/09/27 02:12:10;;;;;;;16.70;9.70;;;17.10;99.90;;;;;;5075736;28;20056;-77
2021/09/27 02:15:08;;;;;;;15.35;10.15;;;17.10;99.90;;;;;;5075192;28;20082;-77
2021/09/27 02:17:43;;;;;;;15.77;9.05;;;17.00;99.90;;;;;;5074979;28;20033;-76
2021/09/27 02:20:31;;;;;;;13.32;8.50;;;17.00;99.90;;;;;;5074404;28;20074;-77
2021/09/27 02:23:26;;;;;;;18.55;9.43;;;17.00;99.90;;;;;;5074331;28;20106;-77
2021/09/27 02:25:52;;;;;;;16.75;9.98;;;17.00;99.90;;;;;;5074940;28;20040;-78
2021/09/27 02:28:21;;;;;;;19.15;10.68;;;17.00;99.90;;;;;;5075961;28;20113;-77
2021/09/27 02:31:01;;;;;;;24.50;10.18;;;17.00;99.90;;;;;;5074433;28;20055;-76
2021/09/27 02:33:49;;;;;;;18.17;10.02;;;17.00;99.90;;;;;;5091500;28;20035;-77
2021/09/27 02:36:21;;;;;;;20.27;10.30;;;16.90;99.90;;;;;;5090943;28;20385;-76
2021/09/27 02:38:46;;;;;;;18.80;10.20;;;16.90;99.90;;;;;;5074771;28;20074;-76
2021/09/27 02:41:47;;;;;;;18.42;10.02;;;16.90;99.90;;;;;;5090838;28;20059;-77
2021/09/27 02:44:13;;;;;;;16.63;9.95;;;16.90;99.90;;;;;;5073313;28;20052;-76
2021/09/27 02:46:52;;;;;;;17.92;9.88;;;16.80;99.90;;;;;;5074495;28;20032;-77
2021/09/27 02:49:19;;;;;;;17.90;10.68;;;16.90;99.90;;;;;;5074967;28;20469;-77
2021/09/27 02:51:47;;;;;;;16.90;9.63;;;16.80;99.90;;;;;;5073910;28;20025;-77
2021/09/27 02:54:26;;;;;;;18.75;10.05;;;16.80;99.90;;;;;;5073611;28;20248;-77
2021/09/27 02:57:07;;;;;;;17.60;10.10;;;16.80;99.90;;;;;;5074105;28;20040;-77
2021/09/27 02:59:49;;;;;;;15.40;9.93;;;16.80;99.90;;;;;;5090952;28;20161;-76
2021/09/27 03:02:33;;;;;;;18.15;10.05;;;16.80;99.90;;;;;;5090281;28;20029;-76
2021/09/27 03:05:07;;;;;;;15.82;9.18;;;16.70;99.90;;;;;;5074904;28;20043;-77
2021/09/27 03:07:49;;;;;;;15.85;9.88;;;16.70;99.90;;;;;;5090951;28;20123;-77
2021/09/27 03:10:20;;;;;;;15.65;8.93;;;16.70;99.90;;;;;;5074716;28;20035;-77
2021/09/27 03:13:17;;;;;;;18.15;9.88;;;16.70;99.90;;;;;;5073888;28;20029;-76
2021/09/27 03:15:57;;;;;;;17.05;10.02;;;16.70;99.90;;;;;;5074054;28;20037;-77
2021/09/27 03:19:01;;;;;;;16.83;9.73;;;16.70;99.90;;;;;;5090967;28;20024;-76
2021/09/27 03:21:41;;;;;;;15.90;9.85;;;16.70;99.90;;;;;;5090439;28;20021;-76
2021/09/27 03:24:22;;;;;;;16.08;9.05;;;16.70;99.90;;;;;;5090149;28;20090;-77
2021/09/27 03:27:06;;;;;;;15.30;9.20;;;16.60;99.90;;;;;;5074612;28;20473;-76
2021/09/27 03:30:00;;;;;;;16.25;10.00;;;16.50;99.90;;;;;;5090069;28;20032;-77
2021/09/27 03:32:25;;;;;;;16.00;9.48;;;16.50;99.90;;;;;;5073541;28;20047;-77
2021/09/27 03:35:20;;;;;;;15.13;8.95;;;16.40;99.90;;;;;;5090042;28;20466;-76
2021/09/27 03:37:48;;;;;;;17.80;9.52;;;16.40;99.90;;;;;;5073335;28;20381;-77
2021/09/27 03:40:48;;;;;;;14.65;9.05;;;16.40;99.90;;;;;;5089914;28;20035;-77
2021/09/27 03:43:32;;;;;;;17.60;9.50;;;16.40;99.90;;;;;;5089636;28;20036;-77
2021/09/27 03:46:30;;;;;;;17.65;9.65;;;16.40;99.90;;;;;;5089536;28;20016;-78
2021/09/27 03:49:32;;;;;;;15.57;8.90;;;16.30;99.90;;;;;;5090012;28;20035;-77
2021/09/27 03:52:08;;;;;;;16.73;9.13;;;16.30;99.90;;;;;;5072911;28;20041;-77
2021/09/27 03:54:56;;;;;;;15.73;9.23;;;16.30;99.90;;;;;;5074082;28;20477;-76
2021/09/27 03:57:46;;;;;;;16.15;9.27;;;16.20;99.90;;;;;;5072753;28;20150;-77
2021/09/27 04:00:35;;;;;;;13.93;8.73;;;16.10;99.90;;;;;;5073543;28;20033;-76
2021/09/27 04:03:19;;;;;;;14.75;9.00;;;16.10;99.90;;;;;;5073033;28;20497;-76
2021/09/27 04:06:03;;;;;;;13.00;8.50;;;16.10;99.90;;;;;;5073938;28;20025;-76
2021/09/27 04:08:47;;;;;;;16.02;8.55;;;16.10;99.90;;;;;;5073826;28;20048;-76
2021/09/27 04:11:23;;;;;;;16.15;9.27;;;16.10;99.90;;;;;;5072111;28;20473;-76
2021/09/27 04:14:04;;;;;;;15.73;8.88;;;16.10;99.90;;;;;;5072600;28;20032;-76
2021/09/27 04:16:46;;;;;;;15.55;8.85;;;16.20;99.90;;;;;;5073388;28;20021;-77
2021/09/27 04:19:27;;;;;;;16.73;9.57;;;16.20;99.90;;;;;;5071800;28;20054;-76
2021/09/27 04:22:17;;;;;;;14.43;9.68;;;16.20;99.90;;;;;;5089613;28;20393;-76
2021/09/27 04:24:58;;;;;;;13.82;8.75;;;16.30;99.90;;;;;;5073779;28;20036;-76
2021/09/27 04:27:35;;;;;;;15.37;9.20;;;16.20;99.90;;;;;;5090018;28;20027;-77
2021/09/27 04:30:10;;;;;;;14.70;9.43;;;16.20;99.90;;;;;;5073516;28;20025;-77
2021/09/27 04:32:45;;;;;;;14.68;9.82;;;16.10;99.90;;;;;;5073723;28;20060;-76
2021/09/27 04:35:28;;;;;;;15.80;8.93;;;16.00;99.90;;;;;;5088756;28;20042;-75
2021/09/27 04:37:54;;;;;;;15.82;9.13;;;16.00;99.90;;;;;;5089247;28;20035;-77
2021/09/27 04:40:39;;;;;;;14.85;9.20;;;15.90;99.90;;;;;;5072035;28;20024;-76
2021/09/27 04:43:21;;;;;;;17.30;9.73;;;16.00;99.90;;;;;;5073135;28;20071;-77
2021/09/27 04:45:56;;;;;;;;;;;15.90;99.90;;;;;;5073628;28;20017;-76
2021/09/27 04:48:56;;;;;;;13.90;8.55;;;15.90;99.90;;;;;;5071852;28;19920;-77
2021/09/27 04:51:41;;;;;;;14.30;7.97;;;15.80;99.90;;;;;;5073089;28;20031;-76
2021/09/27 04:54:36;;;;;;;13.65;8.75;;;15.80;99.90;;;;;;5071900;28;20056;-77
2021/09/27 04:57:19;;;;;;;12.60;8.25;;;15.80;99.90;;;;;;5072490;28;20044;-77
2021/09/27 05:00:03;;;;;;;13.50;8.30;;;15.80;99.90;;;;;;5089194;28;20028;-76
2021/09/27 05:02:38;;;;;;;14.20;8.98;;;15.70;99.90;;;;;;5073416;28;20101;-76
2021/09/27 05:05:33;;;;;;;18.35;9.55;;;15.80;99.90;;;;;;5089151;28;20178;-76
2021/09/27 05:08:36;;;;;;;16.60;9.15;;;15.80;99.90;;;;;;5050758;28;20116;-76
2021/09/27 05:11:20;;;;;;;15.55;8.25;;;15.80;99.90;;;;;;5074329;28;20501;-80
2021/09/27 05:14:12;;;;;;;16.42;8.90;;;15.90;99.90;;;;;;5092576;28;20039;-76
2021/09/27 05:16:47;;;;;;;14.88;8.90;;;15.90;99.90;;;;;;5077126;28;20101;-76
2021/09/27 05:19:33;;;;;;;14.38;8.25;;;15.90;99.90;;;;;;5075406;28;20041;-77
2021/09/27 05:22:21;;;;;;;14.30;8.68;;;15.80;99.90;;;;;;5093135;28;20035;-76
2021/09/27 05:25:01;;;;;;;15.35;9.30;;;15.80;99.90;;;;;;5076690;28;20035;-76
2021/09/27 05:27:53;;;;;;;16.67;9.67;;;15.70;99.90;;;;;;5092995;28;20021;-76
2021/09/27 05:30:37;;;;;;;12.52;7.60;;;15.80;99.90;;;;;;5076225;28;20056;-76
2021/09/27 05:33:30;;;;;;;13.95;8.43;;;15.70;99.90;;;;;;5092133;28;20066;-78
2021/09/27 05:36:11;;;;;;;15.30;7.90;;;15.80;99.90;;;;;;5076723;28;20032;-76
2021/09/27 05:39:09;;;;;;;17.48;9.07;;;15.80;99.90;;;;;;5075510;28;20037;-77
2021/09/27 05:41:53;;;;;;;13.75;8.88;;;15.90;99.90;;;;;;5076492;28;20020;-76
2021/09/27 05:45:07;;;;;;;17.65;8.98;;;15.90;99.90;;;;;;5092092;28;20086;-77
2021/09/27 05:47:45;;;;;;;13.50;8.73;;;16.00;99.90;;;;;;5038258;28;20034;-76
2021/09/27 05:50:35;;;;;;;14.13;8.55;;;16.00;99.90;;;;;;5075563;28;20029;-76
2021/09/27 05:53:15;;;;;;;16.70;9.18;;;16.00;99.90;;;;;;5076158;28;20028;-76
2021/09/27 05:55:50;;;;;;;14.07;8.13;;;16.00;99.90;;;;;;5076302;28;20527;-76
2021/09/27 05:58:45;;;;;;;14.55;8.25;;;16.00;99.90;;;;;;5074744;28;20457;-77
2021/09/27 06:01:25;;;;;;;17.35;9.15;;;16.00;99.90;;;;;;5076012;28;20025;-77
2021/09/27 06:04:15;;;;;;;15.75;9.13;;;16.00;99.90;;;;;;5091596;28;20396;-76
2021/09/27 06:06:53;;;;;;;14.75;8.18;;;16.00;99.90;;;;;;5074964;28;20025;-76
2021/09/27 06:09:31;;;;;;;15.75;9.30;;;16.00;99.90;;;;;;5075653;28;20021;-76
2021/09/27 06:12:13;;;;;;;16.65;9.10;;;16.00;99.90;;;;;;5076112;28;20026;-76
2021/09/27 06:14:39;;;;;;;14.60;9.07;;;16.00;99.90;;;;;;5074823;28;20457;-76
2021/09/27 06:17:16;;;;;;;15.40;9.10;;;16.10;99.90;;;;;;5076136;28;20066;-76
2021/09/27 06:19:42;;;;;;;17.92;9.35;;;16.10;99.90;;;;;;5074808;28;20021;-76
2021/09/27 06:22:32;;;;;;;16.65;10.05;;;16.10;99.90;;;;;;5089701;28;20028;-77
2021/09/27 06:25:28;;;;;;;15.02;9.43;;;16.20;99.90;;;;;;5075387;28;20037;-76
2021/09/27 06:28:02;;;;;;;16.42;9.27;;;16.20;99.90;;;;;;5074547;28;20047;-76
2021/09/27 06:30:45;;;;;;;16.52;9.55;;;16.30;99.90;;;;;;5073675;28;20024;-76
2021/09/27 06:33:49;;;;;;;17.48;9.45;;;16.40;99.90;;;;;;5090578;28;20037;-76
2021/09/27 06:36:21;;;;;;;18.15;9.95;;;16.40;99.90;;;;;;5061038;28;20401;-76
2021/09/27 06:38:56;;;;;;;16.60;9.75;;;16.50;99.90;;;;;;5074145;28;20454;-77
2021/09/27 06:41:23;;;;;;;18.63;10.15;;;16.60;99.90;;;;;;5073980;28;20048;-75
2021/09/27 06:43:50;;;;;;;18.15;9.50;;;16.70;99.90;;;;;;5075154;28;20036;-76
2021/09/27 06:46:16;;;;;;;21.67;10.32;;;16.70;99.90;;;;;;5073258;28;20091;-76
2021/09/27 06:48:42;;;;;;;17.05;9.90;;;16.70;99.90;;;;;;5073908;28;20020;-76
2021/09/27 06:51:08;;;;;;;17.33;9.73;;;16.70;99.90;;;;;;5073333;28;20119;-78
2021/09/27 06:53:33;;;;;;;19.63;9.88;;;16.70;99.90;;;;;;5073725;28;20127;-76
2021/09/27 06:56:00;;;;;;;17.20;9.68;;;16.70;99.90;;;;;;5073930;28;20080;-77
2021/09/27 06:58:27;;;;;;;18.70;10.07;;;16.70;99.90;;;;;;5074817;28;20074;-77
2021/09/27 07:00:56;;;;;;;16.88;9.75;;;16.80;99.90;;;;;;5073970;28;20056;-76
2021/09/27 07:03:22;;;;;;;18.17;10.23;;;16.80;99.90;;;;;;5073269;28;20033;-77
2021/09/27 07:05:48;;;;;;;16.30;8.80;;;16.90;99.90;;;;;;5074190;28;20036;-77
2021/09/27 07:08:15;;;;;;;15.75;9.48;;;16.80;99.90;;;;;;5073422;28;20540;-77
2021/09/27 07:10:41;;;;;;;16.70;10.10;;;16.90;99.90;;;;;;5075350;28;20024;-76
2021/09/27 07:13:07;;;;;;;20.60;13.48;;;16.90;99.90;;;;;;5073663;28;20538;-76
2021/09/27 07:15:32;;;;;;;17.40;10.10;;;16.90;99.90;;;;;;5073169;28;20066;-77
2021/09/27 07:17:58;;;;;;;16.08;10.02;;;16.90;99.90;;;;;;5074499;28;20024;-77
2021/09/27 07:20:26;;;;;;;17.92;10.05;;;16.90;99.90;;;;;;5073109;28;20024;-76
2021/09/27 07:22:53;;;;;;;16.38;9.30;;;17.00;99.90;;;;;;5074505;28;20028;-77
2021/09/27 07:25:19;;;;;;;18.27;10.13;;;17.00;99.90;;;;;;5074466;28;20032;-77
2021/09/27 07:27:44;;;;;;;19.98;9.65;;;17.20;99.90;;;;;;5073281;28;20028;-77
2021/09/27 07:30:11;;;;;;;15.57;9.40;;;17.30;99.90;;;;;;5073939;28;20028;-77
2021/09/27 07:32:38;;;;;;;15.55;8.55;;;17.40;99.90;;;;;;5073157;28;20115;-77
2021/09/27 07:35:05;;;;;;;14.40;8.70;;;17.40;99.90;;;;;;5073018;28;20078;-77
2021/09/27 07:37:30;;;;;;;21.48;9.75;;;17.50;99.90;;;;;;5073355;28;20031;-76
2021/09/27 07:39:56;;;;;;;16.15;9.40;;;17.50;99.90;;;;;;5074353;28;20029;-76
2021/09/27 07:42:22;;;;;;;14.75;8.57;;;17.50;99.90;;;;;;5073206;28;20017;-77
2021/09/27 07:44:47;;;;;;;14.57;8.50;;;17.60;99.90;;;;;;5073230;28;20039;-76
2021/09/27 07:47:13;;;;;;;16.05;8.63;;;17.70;99.80;;;;;;5072580;28;20077;-77
2021/09/27 07:49:38;;;;;;;14.45;8.88;;;17.70;99.60;;;;;;5074106;28;20081;-76
2021/09/27 07:52:05;;;;;;;13.57;8.20;;;17.80;99.60;;;;;;5073265;28;20020;-77
2021/09/27 07:54:31;;;;;;;12.60;8.32;;;17.80;99.60;;;;;;5073077;28;20165;-77
2021/09/27 07:56:57;;;;;;;16.00;8.38;;;17.80;99.40;;;;;;5073103;28;20398;-76
2021/09/27 07:59:23;;;;;;;13.23;8.32;;;17.80;99.40;;;;;;5072747;28;20032;-76
2021/09/27 08:01:49;;;;;;;15.63;8.85;;;17.80;99.50;;;;;;5072793;28;20499;-76
2021/09/27 08:04:15;;;;;;;13.63;8.00;;;17.90;99.30;;;;;;5072153;28;20564;-77
2021/09/27 08:06:42;;;;;;;12.07;7.93;;;17.90;99.20;;;;;;5073005;28;20025;-76
2021/09/27 08:09:09;;;;;;;14.13;8.77;;;18.00;99.40;;;;;;5073783;28;20119;-76
2021/09/27 08:11:40;;;;;;;11.48;7.85;;;17.90;99.00;;;;;;5073164;28;20454;-76
2021/09/27 08:14:06;;;;;;;12.35;7.80;;;18.00;98.90;;;;;;5073891;28;20032;-76
2021/09/27 08:16:31;;;;;;;13.45;7.78;;;18.00;99.00;;;;;;5072046;28;20398;-76
2021/09/27 08:18:57;;;;;;;13.27;8.00;;;17.90;99.00;;;;;;5072639;28;20021;-76
2021/09/27 08:21:23;;;;;;;11.43;7.05;;;17.90;99.00;;;;;;5072068;28;20036;-76
2021/09/27 08:23:49;;;;;;;12.60;7.20;;;17.90;99.20;;;;;;5073408;28;20101;-77
2021/09/27 08:26:16;;;;;;;10.77;7.35;;;18.00;99.10;;;;;;5071894;28;20032;-79
2021/09/27 08:28:43;;;;;;;11.25;7.22;;;18.00;99.30;;;;;;5072377;28;20462;-76
2021/09/27 08:31:14;;;;;;;10.93;7.05;;;18.00;99.20;;;;;;5072435;28;20027;-76
2021/09/27 08:33:40;;;;;;;11.60;6.72;;;18.00;98.70;;;;;;5073367;28;20032;-76
2021/09/27 08:36:09;;;;;;;9.13;6.13;;;18.00;98.70;;;;;;5073060;28;20119;-76
2021/09/27 08:38:38;;;;;;;11.10;6.75;;;18.00;98.50;;;;;;5071348;28;20099;-76
2021/09/27 08:41:17;;;;;;;9.50;6.32;;;17.90;98.70;;;;;;5072420;28;20411;-76
2021/09/27 08:43:52;;;;;;;11.85;6.43;;;18.00;98.60;;;;;;5073308;28;20033;-76
2021/09/27 08:46:33;;;;;;;13.93;7.10;;;18.00;98.60;;;;;;5092056;28;20028;-77
2021/09/27 08:49:13;;;;;;;10.27;6.47;;;18.00;98.70;;;;;;5092924;28;20466;-76
2021/09/27 08:51:38;;;;;;;8.35;5.75;;;18.10;98.70;;;;;;5076895;28;20028;-77
2021/09/27 08:54:17;;;;;;;12.27;6.68;;;18.10;98.60;;;;;;5076271;28;20384;-76
2021/09/27 08:56:55;;;;;;;8.32;5.90;;;18.10;98.40;;;;;;5076087;28;20056;-76
2021/09/27 08:59:59;;;;;;;11.68;6.25;;;18.20;98.30;;;;;;5092650;28;20059;-77
2021/09/27 09:02:51;;;;;;;9.85;5.85;;;18.20;98.20;;;;;;5076891;28;20028;-77
2021/09/27 09:05:23;;;;;;;;;;;18.30;98.20;;;;;;5093071;28;20036;-79
2021/09/27 09:08:03;;;;;;;8.75;5.60;;;18.30;97.80;;;;;;5076582;28;20380;-76
2021/09/27 09:10:35;;;;;;;9.30;5.47;;;18.40;97.90;;;;;;5075443;28;20402;-76
2021/09/27 09:13:04;;;;;;;12.25;6.03;;;18.40;97.90;;;;;;5093072;28;20035;-77
2021/09/27 09:15:30;;;;;;;8.75;5.97;;;18.40;98.00;;;;;;5075550;28;20116;-77
2021/09/27 09:18:06;;;;;;;11.52;6.53;;;18.40;98.00;;;;;;5075701;28;20051;-78
2021/09/27 09:20:58;;;;;;;7.70;5.03;;;18.50;97.80;;;;;;5076473;28;20029;-77
2021/09/27 09:23:34;;;;;;;9.38;5.63;;;18.60;98.00;;;;;;5076298;28;20029;-77
2021/09/27 09:26:03;;;;;;;9.68;5.72;;;18.60;97.50;;;;;;5076848;28;20087;-76
2021/09/27 09:28:29;;;;;;;11.75;5.90;;;18.70;97.80;;;;;;5074974;28;20027;-76
2021/09/27 09:31:05;;;;;;;13.93;6.30;;;18.70;97.60;;;;;;5075183;28;20027;-77
2021/09/27 09:33:45;;;;;;;7.00;5.10;;;18.70;97.70;;;;;;5074772;28;20032;-77
2021/09/27 09:36:20;;;;;;;9.68;6.15;;;18.70;97.80;;;;;;5092485;28;20028;-77
2021/09/27 09:38:47;;;;;;;6.82;4.88;;;18.80;97.70;;;;;;5075418;28;20020;-77
2021/09/27 09:41:13;;;;;;;7.05;4.97;;;18.90;98.10;;;;;;5076612;28;20017;-77
2021/09/27 09:43:46;;;;;;;7.90;5.18;;;18.90;97.60;;;;;;5074751;28;20041;-77
2021/09/27 09:46:18;;;;;;;8.15;5.00;;;18.90;97.50;;;;;;5075436;28;20031;-77
2021/09/27 09:49:09;;;;;;;6.72;4.43;;;19.00;97.40;;;;;;5092707;28;20438;-77
2021/09/27 09:51:41;;;;;;;7.77;4.83;;;19.00;97.10;;;;;;5075101;28;20060;-77
2021/09/27 09:54:20;;;;;;;6.72;4.88;;;19.00;97.10;;;;;;5075350;28;20035;-78
2021/09/27 09:57:05;;;;;;;7.28;4.57;;;19.10;97.20;;;;;;5075688;28;20094;-78
2021/09/27 09:59:38;;;;;;;6.13;4.07;;;19.20;96.80;;;;;;5074681;28;20024;-78
2021/09/27 10:02:15;;;;;;;5.72;4.22;;;19.30;96.30;;;;;;5075153;28;20078;-77
2021/09/27 10:04:46;;;;;;;6.43;3.90;;;19.30;95.90;;;;;;5074744;28;20103;-77
2021/09/27 10:07:29;;;;;;;7.68;4.30;;;19.40;95.90;;;;;;5076142;28;20075;-77
2021/09/27 10:09:57;;;;;;;7.05;4.07;;;19.40;95.70;;;;;;5076060;28;20511;-77
2021/09/27 10:12:48;;;;;;;5.78;3.58;;;19.60;95.60;;;;;;5091210;28;20051;-77
2021/09/27 10:15:29;;;;;;;8.20;4.05;;;19.60;95.00;;;;;;5075669;28;20481;-77
2021/09/27 10:18:18;;;;;;;5.18;3.58;;;19.60;95.00;;;;;;5075776;28;20469;-77
2021/09/27 10:20:57;;;;;;;5.65;3.92;;;19.70;95.20;;;;;;5091070;28;20041;-77
2021/09/27 10:23:39;;;;;;;7.63;3.92;;;19.70;95.00;;;;;;5075206;28;20167;-76
2021/09/27 10:26:14;;;;;;;5.55;3.75;;;19.80;94.50;;;;;;5075748;28;20024;-77
2021/09/27 10:28:41;;;;;;;5.78;3.35;;;19.80;94.70;;;;;;5074711;28;20446;-76
2021/09/27 10:31:08;;;;;;;5.80;3.80;;;19.90;94.60;;;;;;5074640;28;20020;-77
2021/09/27 10:33:40;;;;;;;5.70;3.78;;;20.00;94.50;;;;;;5075209;28;20016;-76
2021/09/27 10:36:11;;;;;;;4.75;3.50;;;20.00;94.40;;;;;;5074640;28;20083;-77
2021/09/27 10:38:53;;;;;;;7.05;3.33;;;20.10;94.10;;;;;;5073924;28;20052;-77
2021/09/27 10:41:37;;;;;;;5.50;3.10;;;20.10;93.70;;;;;;5075222;28;20362;-76
2021/09/27 10:44:08;;;;;;;4.00;2.92;;;20.20;93.50;;;;;;5074108;28;20028;-76
2021/09/27 10:46:39;;;;;;;3.35;2.67;;;20.40;93.10;;;;;;5073858;28;20021;-77
2021/09/27 10:49:12;;;;;;;5.28;3.40;;;20.50;93.20;;;;;;5074680;28;20032;-77
2021/09/27 10:51:39;;;;;;;4.15;3.22;;;20.70;93.40;;;;;;5073831;28;20025;-77
2021/09/27 10:54:22;;;;;;;5.05;2.97;;;20.80;92.70;;;;;;5075455;28;20025;-77
2021/09/27 10:56:55;;;;;;;7.28;3.80;;;20.80;92.90;;;;;;5073467;28;20052;-77
2021/09/27 10:59:46;;;;;;;4.95;3.15;;;20.90;92.80;;;;;;5074010;28;20021;-77
2021/09/27 11:02:39;;;;;;;4.20;2.60;;;20.90;92.40;;;;;;5074243;28;20025;-76
2021/09/27 11:05:32;;;;;;;5.22;2.67;;;20.80;92.10;;;;;;5073993;28;20036;-77
2021/09/27 11:08:07;;;;;;;2.88;2.58;;;20.90;92.10;;;;;;5074427;28;20016;-76
2021/09/27 11:10:41;;;;;;;7.35;2.60;;;21.00;92.00;;;;;;5073004;28;20400;-76
2021/09/27 11:13:11;;;;;;;4.07;2.83;;;21.10;91.50;;;;;;5090110;28;20373;-76
2021/09/27 11:15:42;;;;;;;3.60;2.78;;;21.20;91.30;;;;;;5072800;28;20024;-76
2021/09/27 11:18:24;;;;;;;3.83;2.25;;;21.30;91.20;;;;;;5074099;28;20025;-76
2021/09/27 11:20:49;;;;;;;3.80;2.38;;;21.40;90.90;;;;;;5073941;28;20025;-76
2021/09/27 11:23:29;;;;;;;3.63;2.63;;;21.40;91.20;;;;;;5074098;28;20043;-76
2021/09/27 11:26:29;;;;;;;3.10;2.50;;;21.40;91.10;;;;;;5073156;28;20066;-78
2021/09/27 11:29:01;;;;;;;3.83;2.63;;;21.40;91.00;;;;;;5074196;28;20021;-76
2021/09/27 11:31:26;;;;;;;3.55;2.83;;;21.50;91.30;;;;;;5073520;28;20028;-77
2021/09/27 11:33:58;;;;;;;3.15;2.20;;;21.50;90.90;;;;;;5089585;28;20381;-77
2021/09/27 11:36:29;;;;;;;;;;;21.60;91.00;;;;;;5073112;28;20526;-76
2021/09/27 11:39:08;;;;;;;2.92;2.17;;;21.60;88.90;;;;;;5073659;28;20360;-77
2021/09/27 11:41:39;;;;;;;2.33;1.70;;;21.70;90.00;;;;;;5073256;28;20024;-77
2021/09/27 11:44:29;;;;;;;2.63;1.98;;;21.80;89.10;;;;;;5073601;28;20024;-76
2021/09/27 11:47:08;;;;;;;2.78;1.98;;;21.90;88.50;;;;;;5073787;28;20019;-76
2021/09/27 11:50:29;;;;;;;3.72;2.08;;;22.00;88.70;;;;;;5073224;28;20100;-77
2021/09/27 11:52:51;;;;;;;;;;;22.10;88.10;;;;;;5071081;28;20033;-77
2021/09/27 11:55:28;;;;;;;2.20;1.70;;;22.20;85.40;;;;;;5071946;28;19901;-76
2021/09/27 11:58:10;;;;;;;2.95;1.60;;;22.20;85.30;;;;;;5072582;28;20461;-77
2021/09/27 12:00:47;;;;;;;2.00;1.60;;;22.20;85.60;;;;;;5071993;28;20025;-77
2021/09/27 12:03:29;;;;;;;2.40;1.77;;;22.20;84.40;;;;;;5071998;28;20036;-76
2021/09/27 12:06:16;;;;;;;1.95;1.63;;;22.20;85.20;;;;;;5072421;28;20028;-77
2021/09/27 12:09:07;;;;;;;3.55;1.48;;;22.20;84.50;;;;;;5071990;28;20338;-77
2021/09/27 12:11:47;;;;;;;1.90;1.65;;;22.30;83.00;;;;;;5072628;28;20099;-77
2021/09/27 12:14:33;;;;;;;3.50;1.88;;;22.30;84.30;;;;;;5072214;28;20033;-77
2021/09/27 12:17:04;;;;;;;3.42;1.75;;;22.40;84.80;;;;;;5072261;28;20021;-77
2021/09/27 12:19:33;;;;;;;3.05;2.00;;;22.50;84.10;;;;;;5072926;28;20025;-77
2021/09/27 12:22:11;;;;;;;3.35;1.85;;;22.80;82.80;;;;;;5072171;28;20016;-77
2021/09/27 12:24:42;;;;;;;3.67;1.80;;;23.10;81.90;;;;;;5071695;28;20115;-77
2021/09/27 12:27:17;;;;;;;3.45;1.77;;;23.30;81.30;;;;;;5071802;28;20081;-77
2021/09/27 12:29:56;;;;;;;3.22;1.48;;;23.40;81.40;;;;;;5071615;28;20119;-77
2021/09/27 12:32:29;;;;;;;1.85;1.65;;;23.50;80.40;;;;;;5089056;28;20364;-77
2021/09/27 12:34:55;;;;;;;2.10;1.58;;;23.70;78.00;;;;;;5072156;28;20037;-77
2021/09/27 12:37:22;;;;;;;2.53;1.70;;;23.80;77.30;;;;;;5072036;28;20083;-76
2021/09/27 12:39:49;;;;;;;3.90;1.55;;;23.90;76.90;;;;;;5071543;28;20032;-77
2021/09/27 12:42:21;;;;;;;3.17;1.40;;;23.90;75.90;;;;;;5071951;28;20028;-77
2021/09/27 12:44:59;;;;;;;1.63;1.50;;;24.10;76.50;;;;;;5071241;28;20032;-77
2021/09/27 12:47:25;;;;;;;3.05;1.70;;;24.20;75.30;;;;;;5073392;28;20028;-77
2021/09/27 12:49:59;;;;;;;3.75;1.80;;;24.30;75.00;;;;;;5071287;28;20047;-77
2021/09/27 12:52:42;;;;;;;2.17;1.60;;;24.40;74.60;;;;;;5072864;28;20044;-77
2021/09/27 12:55:12;;;;;;;4.15;2.10;;;24.60;73.70;;;;;;5072934;28;20103;-77
2021/09/27 12:57:48;;;;;;;2.33;1.73;;;24.50;74.10;;;;;;5071484;28;20403;-77
2021/09/27 13:00:25;;;;;;;2.72;1.98;;;24.40;72.80;;;;;;5071812;28;20048;-77
2021/09/27 13:02:51;;;;;;;3.42;1.88;;;24.20;74.50;;;;;;5071064;28;20492;-76
2021/09/27 13:05:27;;;;;;;2.33;1.48;;;24.20;75.00;;;;;;5072852;28;20025;-77
2021/09/27 13:07:56;;;;;;;2.53;1.83;;;24.50;75.40;;;;;;5071249;28;20029;-77
2021/09/27 13:10:54;;;;;;;2.42;1.60;;;24.80;75.10;;;;;;5071639;28;20527;-77
2021/09/27 13:13:36;;;;;;;2.28;1.63;;;24.80;73.60;;;;;;5072943;28;20031;-77
2021/09/27 13:16:11;;;;;;;2.30;1.65;;;24.70;73.00;;;;;;5072823;28;20074;-77
2021/09/27 13:18:42;;;;;;;3.30;1.58;;;24.70;73.80;;;;;;5072080;28;20021;-77
2021/09/27 13:21:27;;;;;;;;;;;24.50;74.50;;;;;;5073272;28;20123;-77
2021/09/27 13:23:55;;;;;;;2.75;1.65;;;24.40;75.10;;;;;;5087947;28;19912;-77
2021/09/27 13:26:39;;;;;;;3.10;1.90;;;24.30;75.50;;;;;;5071724;28;20047;-76
2021/09/27 13:29:19;;;;;;;3.08;1.80;;;24.10;75.60;;;;;;5072579;28;20339;-77
2021/09/27 13:31:59;;;;;;;2.60;1.42;;;24.00;75.40;;;;;;5089978;28;20046;-77